KMFR/MFR METAR and TAF weather

Enter ICAO airport designator
Station Type Date Time Source
KMFR METAR 2022/11/30 23:53 UTC NOAA

KMFR 302353Z 30004KT 10SM OVC055 08/06 A2964 RMK AO2 RAE06B28E47 SLP042 P0000 60002 T00780061 10133 20056 58002


Station Type Date Time Source
KMFR Decoded METAR 2022/11/30 23:53 UTC NOAA

ROGUE VALLEY INTERNATIONAL AIRPORT, OR, United States (KMFR) 42-23N 122-53W 396M
Nov 30, 2022 - 06:53 PM EST / 2022.11.30 2353 UTC
Wind: from the WNW (300 degrees) at 5 MPH (4 KT):0
Visibility: 10 mile(s):0
Sky conditions: overcast
Precipitation last hour: A trace
Temperature: 46.0 F (7.8 C)
Dew Point: 43.0 F (6.1 C)
Relative Humidity: 88%
Pressure (altimeter): 29.64 in. Hg (1003 hPa)
Pressure tendency: 0.01 inches (0.2 hPa) lower than three hours ago
ob: KMFR 302353Z 30004KT 10SM OVC055 08/06 A2964 RMK AO2 RAE06B28E47 SLP042 P0000 60002 T00780061 10133 20056 58002
cycle: 0

Station Type Date Time Source
KMFR TAF 2022/11/30 18:21 UTC NOAA

TAF KMFR 301720Z 3018/0118 15010KT P6SM SCT030 BKN060 WS020/21035KT
FM302100 24012G20KT P6SM -SHRA SCT025 OVC040
FM010300 23006KT P6SM -SHRA SCT020 OVC035

Example: see airport list